createdAt,value
2022-11-20T00:02:36.420Z,100825.88
2022-11-20T00:05:40.456Z,100834.72
2022-11-20T00:08:43.863Z,100831.22
2022-11-20T00:11:46.537Z,100837.25
2022-11-20T00:14:49.131Z,100827.63
2022-11-20T00:17:52.101Z,100830.28
2022-11-20T00:21:01.890Z,100826.66
2022-11-20T00:24:04.876Z,100825.03
2022-11-20T00:27:07.492Z,100826.72
2022-11-20T00:30:13.702Z,100820.53
2022-11-20T00:33:17.593Z,100823.19
2022-11-20T00:36:23.145Z,100832.97
2022-11-20T00:39:25.769Z,100825.72
2022-11-20T00:42:28.414Z,100824.06
2022-11-20T00:45:31.041Z,100816.19
2022-11-20T00:48:33.890Z,100814.38
2022-11-20T00:51:37.832Z,100817.03
2022-11-20T00:54:40.481Z,100816.16
2022-11-20T00:57:43.107Z,100820.69
2022-11-20T01:00:45.763Z,100817.03
2022-11-20T01:03:51.636Z,100818.97
2022-11-20T01:06:55.627Z,100817.56
2022-11-20T01:09:58.278Z,100810.34
2022-11-20T01:13:14.774Z,100812.16
2022-11-20T01:16:19.400Z,100806.88
2022-11-20T01:19:25.403Z,100808.44
2022-11-20T01:22:29.530Z,100804.03
2022-11-20T01:25:32.282Z,100804.13
2022-11-20T01:28:35.595Z,100803.22
2022-11-20T01:31:39.400Z,100798.44
2022-11-20T01:34:42.029Z,100796.69
2022-11-20T01:37:46.020Z,100793.09
2022-11-20T01:40:56.170Z,100782.53
2022-11-20T01:43:57.828Z,100771.06
2022-11-20T01:47:04.408Z,100773.53
2022-11-20T01:50:14.965Z,100773.44
2022-11-20T01:53:22.538Z,100776.31
2022-11-20T01:56:27.194Z,100777.19
2022-11-20T01:59:31.234Z,100770.22
2022-11-20T02:02:34.516Z,100773.56
2022-11-20T02:05:43.030Z,100764.88
2022-11-20T02:08:47.015Z,100756.94
2022-11-20T02:11:49.742Z,100763.78
2022-11-20T02:14:51.425Z,100756.91
2022-11-20T02:17:55.127Z,100750.72
2022-11-20T02:21:03.876Z,100746.38
2022-11-20T02:24:11.204Z,100754.28
2022-11-20T02:27:16.029Z,100754.28
2022-11-20T02:30:19.407Z,100748.22
2022-11-20T02:33:22.027Z,100742.09
2022-11-20T02:36:28.045Z,100741.84
2022-11-20T02:39:32.027Z,100745.31
2022-11-20T02:42:34.638Z,100737.50
2022-11-20T02:45:37.458Z,100744.56
2022-11-20T02:48:40.086Z,100736.81
2022-11-20T02:51:42.683Z,100730.41
2022-11-20T02:54:46.818Z,100735.56
2022-11-20T02:57:49.486Z,100730.72
2022-11-20T03:00:52.191Z,100726.63
2022-11-20T03:03:55.716Z,100722.63
2022-11-20T03:06:58.449Z,100722.88
2022-11-20T03:10:02.503Z,100720.38
2022-11-20T03:13:05.099Z,100721.19
2022-11-20T03:16:09.857Z,100730.69
2022-11-20T03:19:13.246Z,100728.28
2022-11-20T03:22:15.895Z,100724.56
2022-11-20T03:25:19.928Z,100733.97
2022-11-20T03:28:22.579Z,100732.00
2022-11-20T03:31:27.650Z,100724.81
2022-11-20T03:34:30.294Z,100722.78
2022-11-20T03:37:33.726Z,100720.97
2022-11-20T03:40:37.769Z,100714.66
2022-11-20T03:43:41.075Z,100717.50
2022-11-20T03:46:43.702Z,100716.59
2022-11-20T03:49:46.329Z,100712.84
2022-11-20T03:52:48.972Z,100708.59
2022-11-20T03:55:54.128Z,100703.16
2022-11-20T03:58:57.040Z,100705.94
2022-11-20T04:01:59.691Z,100698.31
2022-11-20T04:05:02.394Z,100699.97
2022-11-20T04:08:05.294Z,100694.47
2022-11-20T04:11:14.062Z,100684.84
2022-11-20T04:14:17.597Z,100690.06
2022-11-20T04:17:20.249Z,100687.81
2022-11-20T04:20:22.928Z,100691.50
2022-11-20T04:23:28.695Z,100684.63
2022-11-20T04:26:33.153Z,100694.78
2022-11-20T04:29:35.794Z,100690.44
2022-11-20T04:32:38.431Z,100683.56
2022-11-20T04:35:41.122Z,100690.28
2022-11-20T04:38:43.754Z,100681.38
2022-11-20T04:41:47.738Z,100684.28
2022-11-20T04:44:50.362Z,100684.69
2022-11-20T04:47:53.021Z,100690.47
2022-11-20T04:50:56.087Z,100684.88
2022-11-20T04:53:59.007Z,100685.84
2022-11-20T04:57:02.986Z,100679.63
2022-11-20T05:00:06.747Z,100676.50
2022-11-20T05:03:09.430Z,100678.25
2022-11-20T05:06:13.714Z,100683.34
2022-11-20T05:09:16.385Z,100667.69
2022-11-20T05:12:20.336Z,100668.63
2022-11-20T05:15:22.970Z,100663.25
2022-11-20T05:18:25.779Z,100659.78
2022-11-20T05:21:28.487Z,100659.81
2022-11-20T05:24:31.119Z,100651.72
2022-11-20T05:27:35.162Z,100657.78
2022-11-20T05:30:37.765Z,100661.25
2022-11-20T05:33:42.350Z,100651.78
2022-11-20T05:36:44.943Z,100650.63
2022-11-20T05:39:47.555Z,100645.56
2022-11-20T05:42:51.541Z,100641.84
2022-11-20T05:45:55.011Z,100638.38
2022-11-20T05:48:58.237Z,100639.63
2022-11-20T05:52:00.933Z,100639.38
2022-11-20T05:55:03.663Z,100640.53
2022-11-20T05:58:07.618Z,100635.88
2022-11-20T06:01:12.889Z,100629.09
2022-11-20T06:04:15.531Z,100637.00
2022-11-20T06:07:18.161Z,100632.75
2022-11-20T06:10:20.828Z,100628.97
2022-11-20T06:13:25.135Z,100636.78
2022-11-20T06:16:27.753Z,100635.16
2022-11-20T06:19:30.390Z,100644.09
2022-11-20T06:22:34.390Z,100632.94
2022-11-20T06:25:39.627Z,100640.88
2022-11-20T06:28:43.693Z,100643.47
2022-11-20T06:31:46.286Z,100633.94
2022-11-20T06:34:48.906Z,100632.63
2022-11-20T06:37:51.564Z,100620.22
2022-11-20T06:40:54.431Z,100630.69
2022-11-20T06:43:58.505Z,100626.09
2022-11-20T06:47:01.948Z,100624.41
2022-11-20T06:50:05.152Z,100626.34
2022-11-20T06:53:07.764Z,100630.72
2022-11-20T06:56:10.577Z,100623.44
2022-11-20T06:59:14.702Z,100625.25
2022-11-20T07:02:17.434Z,100624.28
2022-11-20T07:05:20.020Z,100616.44
2022-11-20T07:08:22.622Z,100616.25
2022-11-20T07:11:25.740Z,100620.59
2022-11-20T07:14:29.778Z,100627.50
2022-11-20T07:17:32.379Z,100617.81
2022-11-20T07:20:35.051Z,100617.00
2022-11-20T07:23:37.996Z,100614.16
2022-11-20T07:26:40.674Z,100630.03
2022-11-20T07:29:44.649Z,100629.91
2022-11-20T07:32:49.065Z,100619.25
2022-11-20T07:35:51.697Z,100624.53
2022-11-20T07:38:55.273Z,100615.75
2022-11-20T07:41:57.893Z,100626.22
2022-11-20T07:45:01.855Z,100619.09
2022-11-20T07:48:04.781Z,100621.84
2022-11-20T07:51:14.348Z,100629.72
2022-11-20T07:54:17.165Z,100629.69
2022-11-20T07:57:22.127Z,100622.78
2022-11-20T08:00:29.171Z,100625.03
2022-11-20T08:03:31.914Z,100627.44
2022-11-20T08:06:34.898Z,100622.97
2022-11-20T08:09:37.537Z,100629.69
2022-11-20T08:13:03.652Z,100624.09
2022-11-20T08:16:08.000Z,100619.50
2022-11-20T08:19:10.847Z,100621.69
2022-11-20T08:22:13.481Z,100625.75
2022-11-20T08:25:16.258Z,100626.97
2022-11-20T08:28:21.576Z,100623.88
2022-11-20T08:31:27.724Z,100630.56
2022-11-20T08:34:30.408Z,100626.22
2022-11-20T08:37:33.015Z,100622.38
2022-11-20T08:40:35.723Z,100623.47
2022-11-20T08:43:38.343Z,100621.09
2022-11-20T08:46:44.437Z,100622.50
2022-11-20T08:49:47.063Z,100615.34
2022-11-20T08:52:49.705Z,100621.94
2022-11-20T08:55:52.338Z,100623.53
2022-11-20T08:59:20.155Z,100625.47
2022-11-20T09:02:18.891Z,100633.13
2022-11-20T09:05:21.511Z,100636.31
2022-11-20T09:08:24.128Z,100633.13
2022-11-20T09:11:26.890Z,100634.81
2022-11-20T09:14:30.964Z,100627.63
2022-11-20T09:17:34.931Z,100632.59
2022-11-20T09:20:37.746Z,100624.75
2022-11-20T09:23:41.663Z,100635.16
2022-11-20T09:26:44.277Z,100612.72
2022-11-20T09:29:46.889Z,100623.31
2022-11-20T09:32:50.915Z,100618.50
2022-11-20T09:35:53.553Z,100623.66
2022-11-20T09:38:57.265Z,100620.78
2022-11-20T09:42:27.496Z,100624.59
2022-11-20T09:45:52.354Z,100619.88
2022-11-20T09:49:07.647Z,100619.09
2022-11-20T09:52:23.054Z,100613.59
2022-11-20T09:55:26.509Z,100623.78
2022-11-20T09:58:33.491Z,100618.19
2022-11-20T10:01:39.175Z,100617.91
2022-11-20T10:04:49.734Z,100622.84
2022-11-20T10:07:57.288Z,100623.91
2022-11-20T10:11:10.174Z,100629.25
2022-11-20T10:14:22.815Z,100630.81
2022-11-20T10:17:43.455Z,100621.19
2022-11-20T10:20:51.892Z,100622.34
2022-11-20T10:24:14.768Z,100618.03
2022-11-20T10:27:58.006Z,100619.22
2022-11-20T10:31:04.699Z,100607.28
2022-11-20T10:34:19.367Z,100612.31
2022-11-20T10:37:28.842Z,100612.13
2022-11-20T10:40:38.122Z,100604.38
2022-11-20T10:43:41.866Z,100607.22
2022-11-20T10:46:46.832Z,100611.22
2022-11-20T10:49:55.032Z,100594.38
2022-11-20T10:53:24.653Z,100605.59
2022-11-20T10:56:35.986Z,100603.34
2022-11-20T10:59:54.921Z,100613.66
2022-11-20T11:03:03.293Z,100604.72
2022-11-20T11:06:11.373Z,100607.00
2022-11-20T11:09:22.049Z,100602.63
2022-11-20T11:12:27.192Z,100595.69
2022-11-20T11:15:31.708Z,100589.34
2022-11-20T11:18:36.342Z,100576.91
2022-11-20T11:21:44.246Z,100573.91
2022-11-20T11:24:55.470Z,100583.72
2022-11-20T11:28:00.116Z,100574.59
2022-11-20T11:31:02.756Z,100579.19
2022-11-20T11:34:07.392Z,100576.94
2022-11-20T11:37:18.430Z,100576.94
2022-11-20T11:40:25.281Z,100575.56
2022-11-20T11:43:48.669Z,100566.47
2022-11-20T11:46:55.755Z,100570.00
2022-11-20T11:50:17.591Z,100572.97
2022-11-20T11:53:22.521Z,100567.44
2022-11-20T11:56:27.126Z,100571.25
2022-11-20T11:59:43.794Z,100578.22
2022-11-20T12:02:58.508Z,100576.50
2022-11-20T12:06:07.439Z,100583.31
2022-11-20T12:09:12.904Z,100579.22
2022-11-20T12:12:21.967Z,100570.88
2022-11-20T12:15:30.734Z,100577.06
2022-11-20T12:18:33.728Z,100583.03
2022-11-20T12:21:49.822Z,100569.66
2022-11-20T12:25:00.887Z,100562.31
2022-11-20T12:28:25.701Z,100572.91
2022-11-20T12:31:45.436Z,100571.19
2022-11-20T12:35:00.069Z,100567.13
2022-11-20T12:38:21.117Z,100553.16
2022-11-20T12:41:59.174Z,100546.94
2022-11-20T12:45:16.726Z,100554.28
2022-11-20T12:48:46.399Z,100553.84
2022-11-20T12:52:19.391Z,100553.06
2022-11-20T12:55:47.886Z,100548.69
2022-11-20T12:59:00.810Z,100539.41
2022-11-20T13:02:20.977Z,100539.16
2022-11-20T13:05:30.645Z,100539.69
2022-11-20T13:08:37.240Z,100540.56
2022-11-20T13:11:45.957Z,100548.81
2022-11-20T13:14:56.325Z,100549.53
2022-11-20T13:18:02.277Z,100552.88
2022-11-20T13:21:16.025Z,100549.16
2022-11-20T13:24:25.369Z,100542.28
2022-11-20T13:27:31.862Z,100550.03
2022-11-20T13:30:36.917Z,100533.31
2022-11-20T13:33:41.437Z,100541.19
2022-11-20T13:36:52.613Z,100533.31
2022-11-20T13:39:55.363Z,100528.88
2022-11-20T13:43:04.104Z,100522.41
2022-11-20T13:46:09.254Z,100518.84
2022-11-20T13:49:26.402Z,100516.22
2022-11-20T13:52:44.489Z,100517.69
2022-11-20T13:55:53.154Z,100520.28
2022-11-20T13:59:05.416Z,100511.13
2022-11-20T14:02:13.852Z,100507.34
2022-11-20T14:05:23.437Z,100503.53
2022-11-20T14:08:33.190Z,100494.00
2022-11-20T14:11:36.089Z,100493.09
2022-11-20T14:14:50.953Z,100498.16
2022-11-20T14:17:53.712Z,100497.28
2022-11-20T14:20:57.811Z,100500.88
2022-11-20T14:24:08.228Z,100493.16
2022-11-20T14:27:15.586Z,100494.81
2022-11-20T14:30:21.150Z,100486.16
2022-11-20T14:33:26.363Z,100480.13
2022-11-20T14:36:30.544Z,100480.41
2022-11-20T14:39:36.529Z,100482.94
2022-11-20T14:42:39.193Z,100483.97
2022-11-20T14:45:42.079Z,100486.28
2022-11-20T14:48:48.764Z,100482.19
2022-11-20T14:52:02.236Z,100479.44
2022-11-20T14:55:05.512Z,100477.84
2022-11-20T14:58:22.593Z,100473.38
2022-11-20T15:01:28.609Z,100468.22
2022-11-20T15:04:31.434Z,100475.28
2022-11-20T15:07:37.307Z,100464.72
2022-11-20T15:10:40.933Z,100467.63
2022-11-20T15:13:43.714Z,100464.94
2022-11-20T15:16:46.721Z,100463.31
2022-11-20T15:19:49.427Z,100460.06
2022-11-20T15:22:53.525Z,100459.66
2022-11-20T15:25:56.940Z,100455.41
2022-11-20T15:28:59.838Z,100459.69
2022-11-20T15:32:02.620Z,100460.69
2022-11-20T15:35:06.043Z,100454.31
2022-11-20T15:38:10.221Z,100453.56
2022-11-20T15:41:12.921Z,100455.88
2022-11-20T15:44:15.749Z,100460.13
2022-11-20T15:47:19.430Z,100447.16
2022-11-20T15:50:22.857Z,100442.78
2022-11-20T15:53:27.152Z,100440.22
2022-11-20T15:56:30.273Z,100448.94
2022-11-20T15:59:33.043Z,100446.78
2022-11-20T16:02:35.865Z,100446.84
2022-11-20T16:05:38.837Z,100451.94
2022-11-20T16:08:43.208Z,100445.88
2022-11-20T16:11:45.911Z,100439.84
2022-11-20T16:15:10.789Z,100444.19
2022-11-20T16:18:19.353Z,100430.19
2022-11-20T16:21:22.117Z,100426.78
2022-11-20T16:24:26.473Z,100433.78
2022-11-20T16:27:29.246Z,100425.84
2022-11-20T16:30:33.008Z,100432.75
2022-11-20T16:33:35.627Z,100438.09
2022-11-20T16:36:41.825Z,100425.88
2022-11-20T16:39:45.901Z,100423.41
2022-11-20T16:42:48.643Z,100424.22
2022-11-20T16:45:51.274Z,100416.44
2022-11-20T16:48:58.233Z,100406.72
2022-11-20T16:52:01.164Z,100400.03
2022-11-20T16:55:06.131Z,100403.69
2022-11-20T16:58:09.265Z,100403.59
2022-11-20T17:01:14.581Z,100409.88
2022-11-20T17:04:18.429Z,100407.94
2022-11-20T17:07:21.144Z,100407.94
2022-11-20T17:10:25.182Z,100415.06
2022-11-20T17:13:27.899Z,100413.28
2022-11-20T17:16:31.391Z,100406.22
2022-11-20T17:19:34.048Z,100408.91
2022-11-20T17:22:36.665Z,100398.38
2022-11-20T17:25:40.673Z,100403.78
2022-11-20T17:28:43.509Z,100395.81
2022-11-20T17:31:47.389Z,100389.59
2022-11-20T17:34:50.023Z,100391.28
2022-11-20T17:37:52.665Z,100387.97
2022-11-20T17:41:03.081Z,100378.50
2022-11-20T17:44:06.005Z,100382.00
2022-11-20T17:47:08.671Z,100380.13
2022-11-20T17:50:11.436Z,100374.94
2022-11-20T17:53:14.090Z,100382.97
2022-11-20T17:56:35.633Z,100383.09
2022-11-20T17:59:39.264Z,100374.41
2022-11-20T18:02:41.876Z,100379.13
2022-11-20T18:05:44.503Z,100378.25
2022-11-20T18:08:48.043Z,100385.63
2022-11-20T18:11:52.067Z,100380.66
2022-11-20T18:14:54.702Z,100379.94
2022-11-20T18:17:57.345Z,100395.81
2022-11-20T18:21:00.334Z,100387.84
2022-11-20T18:24:03.131Z,100383.81
2022-11-20T18:27:08.569Z,100381.88
2022-11-20T18:30:12.938Z,100380.16
2022-11-20T18:33:15.581Z,100376.78
2022-11-20T18:36:20.076Z,100386.66
2022-11-20T18:39:23.550Z,100385.94
2022-11-20T18:42:45.307Z,100376.28
2022-11-20T18:45:47.951Z,100378.16
2022-11-20T18:48:50.531Z,100380.94
2022-11-20T18:51:53.161Z,100378.34
2022-11-20T18:54:56.308Z,100376.72
2022-11-20T18:58:00.281Z,100378.09
2022-11-20T19:01:07.025Z,100377.94
2022-11-20T19:04:11.004Z,100376.19
2022-11-20T19:07:13.984Z,100371.50
2022-11-20T19:10:20.064Z,100372.06
2022-11-20T19:13:24.029Z,100376.44
2022-11-20T19:16:26.657Z,100372.66
2022-11-20T19:19:29.325Z,100367.16
2022-11-20T19:22:31.948Z,100360.84
2022-11-20T19:25:38.073Z,100357.94
2022-11-20T19:28:42.418Z,100353.66
2022-11-20T19:31:45.114Z,100351.91
2022-11-20T19:34:47.713Z,100342.03
2022-11-20T19:37:50.331Z,100335.91
2022-11-20T19:40:52.982Z,100326.50
2022-11-20T19:43:58.304Z,100335.00
2022-11-20T19:47:03.013Z,100327.03
2022-11-20T19:50:06.318Z,100322.72
2022-11-20T19:53:11.241Z,100317.28
2022-11-20T19:56:13.993Z,100310.53
2022-11-20T19:59:18.284Z,100309.53
2022-11-20T20:02:20.917Z,100307.78
2022-11-20T20:05:23.805Z,100291.28
2022-11-20T20:08:26.392Z,100293.88
2022-11-20T20:11:31.337Z,100284.09
2022-11-20T20:14:35.585Z,100290.44
2022-11-20T20:17:38.236Z,100284.50
2022-11-20T20:20:40.864Z,100277.72
2022-11-20T20:23:44.071Z,100292.66
2022-11-20T20:26:46.692Z,100280.25
2022-11-20T20:29:50.656Z,100275.88
2022-11-20T20:32:56.298Z,100267.06
2022-11-20T20:35:59.782Z,100274.97
2022-11-20T20:39:03.270Z,100284.66
2022-11-20T20:42:06.250Z,100272.28
2022-11-20T20:45:11.865Z,100281.06
2022-11-20T20:48:14.793Z,100276.81
2022-11-20T20:51:17.552Z,100273.41
2022-11-20T20:54:20.251Z,100269.06
2022-11-20T20:57:23.701Z,100262.13
2022-11-20T21:00:27.640Z,100254.47
2022-11-20T21:03:33.010Z,100258.94
2022-11-20T21:06:35.827Z,100258.34
2022-11-20T21:09:38.549Z,100256.44
2022-11-20T21:12:41.182Z,100261.84
2022-11-20T21:15:47.722Z,100254.97
2022-11-20T21:18:50.322Z,100262.25
2022-11-20T21:22:03.121Z,100262.31
2022-11-20T21:25:06.347Z,100250.53
2022-11-20T21:28:13.087Z,100256.78
2022-11-20T21:31:21.917Z,100250.59
2022-11-20T21:34:26.372Z,100252.38
2022-11-20T21:37:29.164Z,100254.16
2022-11-20T21:40:31.824Z,100249.72
2022-11-20T21:43:34.619Z,100252.31
2022-11-20T21:46:40.651Z,100245.38
2022-11-20T21:49:43.296Z,100243.56
2022-11-20T21:52:45.958Z,100240.09
2022-11-20T21:55:54.696Z,100240.34
2022-11-20T21:58:58.118Z,100230.69
2022-11-20T22:02:02.217Z,100221.81
2022-11-20T22:05:05.220Z,100213.09
2022-11-20T22:08:07.893Z,100222.91
2022-11-20T22:11:13.124Z,100213.19
2022-11-20T22:14:21.734Z,100207.16
2022-11-20T22:17:39.903Z,100217.66
2022-11-20T22:20:42.705Z,100210.03
2022-11-20T22:23:45.427Z,100213.41
2022-11-20T22:26:48.444Z,100211.75
2022-11-20T22:29:51.067Z,100202.31
2022-11-20T22:32:56.289Z,100209.25
2022-11-20T22:36:02.652Z,100207.53
2022-11-20T22:39:05.831Z,100194.22
2022-11-20T22:42:08.448Z,100201.56
2022-11-20T22:45:11.890Z,100199.91
2022-11-20T22:48:15.901Z,100193.66
2022-11-20T22:51:20.729Z,100199.19
2022-11-20T22:54:23.600Z,100192.34
2022-11-20T22:57:26.321Z,100192.28
2022-11-20T23:00:28.985Z,100190.41
2022-11-20T23:03:32.961Z,100192.41
2022-11-20T23:06:35.794Z,100183.53
2022-11-20T23:09:38.414Z,100191.69
2022-11-20T23:12:41.046Z,100188.03
2022-11-20T23:15:43.670Z,100190.72
2022-11-20T23:18:47.733Z,100184.47
2022-11-20T23:21:50.371Z,100183.91
2022-11-20T23:24:52.977Z,100179.53
2022-11-20T23:27:55.616Z,100177.94
2022-11-20T23:30:58.502Z,100177.91
2022-11-20T23:34:02.581Z,100175.84
2022-11-20T23:37:05.184Z,100167.84
2022-11-20T23:40:09.265Z,100175.16
2022-11-20T23:43:18.172Z,100167.59
2022-11-20T23:46:20.824Z,100166.72
2022-11-20T23:49:24.833Z,100163.25
2022-11-20T23:52:27.462Z,100162.41
2022-11-20T23:55:30.324Z,100151.00
2022-11-20T23:58:34.918Z,100151.06
